createdAt,value
2022-11-05T00:05:03.568Z,45.6
2022-11-05T00:12:35.848Z,45.6
2022-11-05T00:20:08.131Z,45.6
2022-11-05T00:27:40.417Z,45.6
2022-11-05T00:35:12.725Z,45.6
2022-11-05T00:42:44.998Z,45.6
2022-11-05T00:50:17.286Z,45.6
2022-11-05T00:57:49.582Z,45.6
2022-11-05T01:05:21.868Z,45.5
2022-11-05T01:12:54.143Z,45.6
2022-11-05T01:20:26.428Z,45.5
2022-11-05T01:27:58.710Z,45.6
2022-11-05T01:35:30.992Z,45.6
2022-11-05T01:43:03.284Z,45.6
2022-11-05T01:50:35.563Z,45.6
2022-11-05T01:58:07.830Z,45.6
2022-11-05T02:05:40.099Z,45.6
2022-11-05T02:13:12.749Z,45.6
2022-11-05T02:20:50.931Z,45.5
2022-11-05T02:28:24.383Z,45.5
2022-11-05T02:35:56.651Z,45.5
2022-11-05T02:43:28.935Z,46.1
2022-11-05T02:51:01.214Z,45.6
2022-11-05T02:58:33.484Z,45.6
2022-11-05T03:06:05.762Z,45.6
2022-11-05T03:13:38.027Z,45.5
2022-11-05T03:21:10.295Z,45.5
2022-11-05T03:28:42.563Z,45.5
2022-11-05T03:36:14.835Z,45.5
2022-11-05T03:43:47.103Z,45.6
2022-11-05T03:51:19.381Z,45.6
2022-11-05T03:58:56.140Z,45.6
2022-11-05T04:06:31.101Z,45.6
2022-11-05T04:14:03.371Z,45.6
2022-11-05T04:21:35.642Z,45.6
2022-11-05T04:29:08.095Z,45.6
2022-11-05T04:36:40.410Z,45.6
2022-11-05T04:44:12.693Z,45.6
2022-11-05T04:51:44.966Z,45.6
2022-11-05T04:59:17.252Z,45.6
2022-11-05T05:06:49.540Z,45.6
2022-11-05T05:14:21.827Z,45.6
2022-11-05T05:21:54.100Z,45.6
2022-11-05T05:29:26.373Z,45.6
2022-11-05T05:36:58.662Z,45.6
2022-11-05T05:44:30.931Z,45.6
2022-11-05T05:52:03.204Z,45.6
2022-11-05T05:59:35.502Z,45.6
2022-11-05T06:07:07.772Z,45.6
2022-11-05T06:14:40.060Z,46.1
2022-11-05T06:21:02.363Z,45.6
2022-11-05T06:21:49.644Z,45.6
2022-11-05T06:22:36.931Z,45.6
2022-11-05T06:23:24.206Z,45.6
2022-11-05T06:24:11.476Z,45.4
2022-11-05T06:24:58.790Z,45.2
2022-11-05T06:25:46.062Z,45.1
2022-11-05T06:26:33.392Z,45.1
2022-11-05T06:27:20.665Z,45.1
2022-11-05T06:28:07.935Z,45.0
2022-11-05T06:28:55.202Z,45.0
2022-11-05T06:29:42.508Z,45.7
2022-11-05T06:30:29.778Z,45.2
2022-11-05T06:31:17.043Z,45.2
2022-11-05T06:32:04.334Z,45.3
2022-11-05T06:32:51.601Z,45.4
2022-11-05T06:33:38.881Z,45.4
2022-11-05T06:34:26.171Z,45.5
2022-11-05T06:35:13.441Z,45.5
2022-11-05T06:36:00.884Z,45.6
2022-11-05T06:36:48.159Z,45.6
2022-11-05T06:37:35.441Z,45.7
2022-11-05T06:38:22.722Z,45.6
2022-11-05T06:39:10.028Z,45.6
2022-11-05T06:39:57.294Z,45.6
2022-11-05T06:40:44.576Z,45.6
2022-11-05T06:41:35.475Z,45.6
2022-11-05T06:42:29.106Z,45.7
2022-11-05T06:43:16.517Z,45.8
2022-11-05T06:44:03.810Z,45.9
2022-11-05T06:44:51.105Z,45.9
2022-11-05T06:45:38.497Z,45.9
2022-11-05T06:46:25.787Z,45.9
2022-11-05T06:47:13.057Z,45.8
2022-11-05T06:48:00.456Z,45.8
2022-11-05T06:48:47.718Z,46.0
2022-11-05T06:49:35.017Z,46.0
2022-11-05T06:50:22.430Z,46.1
2022-11-05T06:51:09.731Z,46.1
2022-11-05T06:51:57.002Z,46.2
2022-11-05T06:52:44.416Z,46.2
2022-11-05T06:53:31.718Z,46.2
2022-11-05T06:54:19.011Z,46.2
2022-11-05T06:55:06.431Z,46.2
2022-11-05T06:55:53.716Z,46.2
2022-11-05T06:56:41.019Z,46.2
2022-11-05T06:57:28.418Z,46.2
2022-11-05T06:58:15.696Z,46.1
2022-11-05T06:59:02.971Z,46.1
2022-11-05T06:59:50.382Z,46.1
2022-11-05T07:00:37.685Z,46.1
2022-11-05T07:01:25.123Z,46.3
2022-11-05T07:02:12.608Z,46.2
2022-11-05T07:02:59.954Z,46.2
2022-11-05T07:03:47.237Z,46.4
2022-11-05T07:04:34.661Z,46.5
2022-11-05T07:05:21.926Z,46.5
2022-11-05T07:06:09.208Z,46.6
2022-11-05T07:06:56.633Z,47.0
2022-11-05T07:07:43.918Z,47.1
2022-11-05T07:08:31.188Z,47.1
2022-11-05T07:09:18.634Z,46.9
2022-11-05T07:10:06.018Z,47.1
2022-11-05T07:10:53.291Z,47.1
2022-11-05T07:11:40.718Z,47.1
2022-11-05T07:12:27.988Z,47.0
2022-11-05T07:13:15.684Z,47.1
2022-11-05T07:14:03.215Z,47.2
2022-11-05T07:14:50.680Z,47.1
2022-11-05T07:15:37.954Z,46.9
2022-11-05T07:16:25.228Z,46.6
2022-11-05T07:17:12.534Z,46.6
2022-11-05T07:17:59.808Z,46.6
2022-11-05T07:18:47.092Z,46.9
2022-11-05T07:19:34.500Z,46.4
2022-11-05T07:20:21.795Z,46.4
2022-11-05T07:21:09.068Z,46.2
2022-11-05T07:21:56.469Z,46.0
2022-11-05T07:22:43.743Z,46.1
2022-11-05T07:23:31.020Z,46.3
2022-11-05T07:24:18.406Z,46.4
2022-11-05T07:25:05.664Z,46.4
2022-11-05T07:25:52.943Z,46.4
2022-11-05T07:26:40.350Z,46.6
2022-11-05T07:27:27.623Z,46.8
2022-11-05T07:28:14.887Z,46.8
2022-11-05T07:29:02.336Z,47.0
2022-11-05T07:29:49.622Z,46.9
2022-11-05T07:30:36.890Z,47.0
2022-11-05T07:31:24.339Z,47.2
2022-11-05T07:32:11.607Z,47.3
2022-11-05T07:32:58.903Z,47.2
2022-11-05T07:33:46.304Z,47.1
2022-11-05T07:34:33.604Z,47.1
2022-11-05T07:35:20.874Z,47.2
2022-11-05T07:36:08.309Z,47.3
2022-11-05T07:36:55.583Z,47.2
2022-11-05T07:37:42.875Z,47.3
2022-11-05T07:38:30.295Z,47.5
2022-11-05T07:39:17.592Z,47.6
2022-11-05T07:40:04.871Z,47.7
2022-11-05T07:40:52.309Z,47.7
2022-11-05T07:41:39.616Z,47.7
2022-11-05T07:42:26.923Z,47.8
2022-11-05T07:43:14.642Z,47.9
2022-11-05T07:44:02.038Z,47.8
2022-11-05T07:44:49.322Z,48.0
2022-11-05T07:45:36.630Z,48.1
2022-11-05T07:46:23.904Z,48.2
2022-11-05T07:47:11.167Z,48.3
2022-11-05T07:47:58.495Z,48.3
2022-11-05T07:48:45.769Z,48.4
2022-11-05T07:49:33.067Z,48.4
2022-11-05T07:50:20.398Z,48.5
2022-11-05T07:51:07.668Z,48.4
2022-11-05T07:51:54.942Z,48.5
2022-11-05T07:52:42.267Z,48.5
2022-11-05T07:53:29.559Z,48.4
2022-11-05T07:54:16.868Z,48.4
2022-11-05T07:55:04.155Z,48.5
2022-11-05T07:55:51.443Z,48.5
2022-11-05T07:56:38.720Z,48.4
2022-11-05T07:57:26.035Z,48.5
2022-11-05T07:58:13.308Z,48.3
2022-11-05T07:59:00.581Z,48.3
2022-11-05T07:59:47.910Z,48.3
2022-11-05T08:00:35.246Z,48.3
2022-11-05T08:01:22.708Z,48.4
2022-11-05T08:02:10.210Z,48.4
2022-11-05T08:03:02.160Z,48.5
2022-11-05T08:03:54.327Z,48.5
2022-11-05T08:04:41.743Z,49.0
2022-11-05T08:05:29.031Z,48.5
2022-11-05T08:06:16.298Z,48.6
2022-11-05T08:07:03.741Z,48.5
2022-11-05T08:07:51.010Z,48.5
2022-11-05T08:08:38.297Z,48.5
2022-11-05T08:09:25.724Z,48.4
2022-11-05T08:10:13.018Z,48.4
2022-11-05T08:11:00.305Z,48.3
2022-11-05T08:11:47.721Z,48.3
2022-11-05T08:12:35.003Z,48.3
2022-11-05T08:13:22.276Z,48.2
2022-11-05T08:14:09.711Z,48.1
2022-11-05T08:14:56.981Z,48.1
2022-11-05T08:15:44.262Z,48.0
2022-11-05T08:16:31.816Z,48.0
2022-11-05T08:17:19.102Z,47.9
2022-11-05T08:18:06.391Z,47.9
2022-11-05T08:18:53.799Z,47.9
2022-11-05T08:19:41.077Z,48.0
2022-11-05T08:20:28.350Z,48.0
2022-11-05T08:21:15.763Z,48.1
2022-11-05T08:22:03.046Z,48.1
2022-11-05T08:22:50.319Z,48.1
2022-11-05T08:23:37.849Z,48.2
2022-11-05T08:24:25.127Z,48.3
2022-11-05T08:25:12.404Z,48.3
2022-11-05T08:25:59.794Z,48.4
2022-11-05T08:26:47.067Z,48.4
2022-11-05T08:27:34.363Z,48.4
2022-11-05T08:28:21.739Z,48.5
2022-11-05T08:29:09.015Z,48.6
2022-11-05T08:29:56.290Z,48.6
2022-11-05T08:30:43.693Z,48.6
2022-11-05T08:31:30.977Z,48.6
2022-11-05T08:32:18.259Z,48.7
2022-11-05T08:33:05.641Z,48.7
2022-11-05T08:33:53.836Z,48.8
2022-11-05T08:34:43.325Z,48.8
2022-11-05T08:35:30.717Z,48.9
2022-11-05T08:36:18.008Z,49.0
2022-11-05T08:37:05.336Z,49.0
2022-11-05T08:37:52.705Z,49.1
2022-11-05T08:38:39.987Z,49.1
2022-11-05T08:39:27.253Z,49.3
2022-11-05T08:40:14.619Z,49.4
2022-11-05T08:41:01.985Z,49.2
2022-11-05T08:41:49.259Z,49.2
2022-11-05T08:42:36.627Z,49.1
2022-11-05T08:43:23.916Z,49.1
2022-11-05T08:44:11.195Z,49.0
2022-11-05T08:44:58.569Z,49.0
2022-11-05T08:45:45.843Z,49.0
2022-11-05T08:46:36.476Z,49.0
2022-11-05T08:47:27.716Z,49.0
2022-11-05T08:48:15.208Z,49.0
2022-11-05T08:49:02.528Z,49.1
2022-11-05T08:49:49.833Z,49.1
2022-11-05T08:50:37.258Z,49.2
2022-11-05T08:51:24.596Z,49.3
2022-11-05T08:52:11.876Z,49.3
2022-11-05T08:52:59.279Z,49.3
2022-11-05T08:53:46.547Z,49.4
2022-11-05T08:54:33.819Z,49.6
2022-11-05T08:55:21.277Z,49.6
2022-11-05T08:56:08.566Z,49.6
2022-11-05T08:56:55.831Z,49.6
2022-11-05T08:57:43.248Z,49.7
2022-11-05T08:58:30.523Z,49.7
2022-11-05T08:59:17.808Z,49.7
2022-11-05T09:00:05.192Z,49.7
2022-11-05T09:00:52.747Z,49.8
2022-11-05T09:01:40.201Z,49.9
2022-11-05T09:02:27.657Z,49.8
2022-11-05T09:03:15.467Z,49.9
2022-11-05T09:04:02.888Z,49.9
2022-11-05T09:04:50.281Z,50.0
2022-11-05T09:05:37.564Z,50.1
2022-11-05T09:06:24.836Z,49.9
2022-11-05T09:07:12.244Z,49.9
2022-11-05T09:08:01.594Z,50.0
2022-11-05T09:08:49.073Z,49.9
2022-11-05T09:09:36.450Z,49.8
2022-11-05T09:10:23.743Z,49.8
2022-11-05T09:11:11.102Z,49.9
2022-11-05T09:12:11.846Z,49.9
2022-11-05T09:12:55.762Z,50.0
2022-11-05T09:13:43.163Z,50.0
2022-11-05T09:14:30.444Z,49.9
2022-11-05T09:15:17.739Z,49.8
2022-11-05T09:16:05.148Z,49.8
2022-11-05T09:16:52.425Z,49.8
2022-11-05T09:17:39.712Z,49.8
2022-11-05T09:18:27.112Z,49.9
2022-11-05T09:19:14.397Z,49.8
2022-11-05T09:20:01.673Z,49.8
2022-11-05T09:20:49.086Z,49.8
2022-11-05T09:21:36.360Z,49.8
2022-11-05T09:22:23.697Z,49.8
2022-11-05T09:23:11.381Z,49.7
2022-11-05T09:23:59.050Z,49.9
2022-11-05T09:24:46.343Z,49.8
2022-11-05T09:25:33.626Z,49.8
2022-11-05T09:26:20.903Z,49.8
2022-11-05T09:27:08.176Z,49.7
2022-11-05T09:27:55.442Z,49.7
2022-11-05T09:28:42.867Z,49.7
2022-11-05T09:29:30.164Z,49.7
2022-11-05T09:30:17.438Z,49.7
2022-11-05T09:31:04.795Z,49.7
2022-11-05T09:31:52.076Z,49.9
2022-11-05T09:32:39.381Z,49.8
2022-11-05T09:33:26.709Z,49.8
2022-11-05T09:34:13.988Z,49.7
2022-11-05T09:35:01.286Z,49.7
2022-11-05T09:35:48.620Z,49.7
2022-11-05T09:36:35.906Z,49.7
2022-11-05T09:37:23.272Z,49.7
2022-11-05T09:38:10.542Z,49.7
2022-11-05T09:38:57.820Z,49.8
2022-11-05T09:39:45.135Z,49.8
2022-11-05T09:43:20.646Z,50.1
2022-11-05T09:44:08.074Z,50.2
2022-11-05T09:44:55.364Z,50.4
2022-11-05T09:45:42.656Z,50.5
2022-11-05T09:46:30.104Z,50.5
2022-11-05T09:47:17.411Z,50.4
2022-11-05T09:48:04.720Z,50.4
2022-11-05T09:48:52.126Z,50.5
2022-11-05T09:49:39.428Z,50.5
2022-11-05T09:50:26.723Z,50.4
2022-11-05T09:51:16.872Z,50.4
2022-11-05T09:52:08.176Z,50.3
2022-11-05T09:52:55.582Z,50.3
2022-11-05T09:53:42.859Z,50.4
2022-11-05T09:54:30.128Z,50.5
2022-11-05T09:55:17.539Z,50.5
2022-11-05T09:56:04.812Z,50.8
2022-11-05T09:56:52.088Z,50.8
2022-11-05T09:57:39.474Z,50.7
2022-11-05T09:58:28.833Z,50.4
2022-11-05T09:59:16.350Z,50.4
2022-11-05T10:00:03.733Z,50.4
2022-11-05T10:00:51.063Z,51.1
2022-11-05T10:01:38.561Z,50.8
2022-11-05T10:02:25.990Z,50.8
2022-11-05T10:03:13.612Z,51.3
2022-11-05T10:04:01.039Z,51.5
2022-11-05T10:04:48.439Z,51.2
2022-11-05T10:05:35.825Z,51.0
2022-11-05T10:06:23.142Z,50.8
2022-11-05T10:07:10.502Z,50.6
2022-11-05T10:07:57.783Z,50.6
2022-11-05T10:08:45.067Z,50.6
2022-11-05T10:09:32.419Z,50.6
2022-11-05T10:10:19.697Z,50.9
2022-11-05T10:11:06.989Z,50.9
2022-11-05T10:11:54.332Z,50.7
2022-11-05T10:12:41.616Z,50.6
2022-11-05T10:13:28.899Z,50.5
2022-11-05T10:14:16.243Z,50.6
2022-11-05T10:15:03.549Z,50.6
2022-11-05T10:15:50.818Z,50.6
2022-11-05T10:16:38.186Z,50.5
2022-11-05T10:17:25.474Z,50.5
2022-11-05T10:18:12.755Z,50.4
2022-11-05T10:19:00.098Z,50.4
2022-11-05T10:19:47.376Z,50.4
2022-11-05T10:20:34.658Z,50.7
2022-11-05T10:21:44.149Z,50.7
2022-11-05T10:22:19.253Z,50.6
2022-11-05T10:23:06.679Z,50.5
2022-11-05T10:23:53.963Z,50.5
2022-11-05T10:24:41.239Z,50.7
2022-11-05T10:25:28.668Z,50.8
2022-11-05T10:26:15.944Z,50.8
2022-11-05T10:27:03.216Z,50.9
2022-11-05T10:27:50.896Z,50.9
2022-11-05T10:28:38.176Z,50.8
2022-11-05T10:29:25.437Z,51.1
2022-11-05T10:30:12.888Z,50.9
2022-11-05T10:31:00.163Z,50.8
2022-11-05T10:31:47.430Z,50.8
2022-11-05T10:32:34.881Z,50.7
2022-11-05T10:33:22.156Z,50.7
2022-11-05T10:34:09.429Z,50.9
2022-11-05T10:34:56.847Z,50.8
2022-11-05T10:35:44.119Z,51.2
2022-11-05T10:36:31.411Z,50.9
2022-11-05T10:37:18.834Z,50.6
2022-11-05T10:38:06.117Z,50.6
2022-11-05T10:38:53.387Z,50.6
2022-11-05T10:39:40.840Z,50.8
2022-11-05T10:40:28.143Z,50.9
2022-11-05T10:41:15.410Z,50.9
2022-11-05T10:42:02.856Z,50.8
2022-11-05T10:42:50.139Z,51.2
2022-11-05T10:43:37.409Z,50.7
2022-11-05T10:44:24.851Z,50.8
2022-11-05T10:45:12.135Z,50.7
2022-11-05T10:45:59.415Z,50.8
2022-11-05T10:46:46.844Z,50.8
2022-11-05T10:47:34.121Z,50.8
2022-11-05T10:48:21.403Z,50.8
2022-11-05T10:49:08.688Z,50.8
2022-11-05T10:49:55.984Z,51.0
2022-11-05T10:50:43.260Z,50.9
2022-11-05T10:51:30.716Z,50.9
2022-11-05T10:52:18.025Z,50.9
2022-11-05T10:53:05.303Z,50.9
2022-11-05T10:53:55.944Z,50.9
2022-11-05T10:54:46.118Z,50.9
2022-11-05T10:55:33.463Z,50.9
2022-11-05T10:56:20.753Z,50.9
2022-11-05T10:57:08.022Z,51.0
2022-11-05T10:57:55.478Z,51.1
2022-11-05T10:58:42.791Z,51.2
2022-11-05T10:59:30.091Z,51.3
2022-11-05T11:00:17.570Z,51.3
2022-11-05T11:01:04.930Z,51.2
2022-11-05T11:01:52.357Z,51.3
2022-11-05T11:02:39.760Z,51.8
2022-11-05T11:03:27.098Z,51.2
2022-11-05T11:04:14.371Z,51.1
2022-11-05T11:05:01.829Z,51.1
2022-11-05T11:05:49.229Z,51.1
2022-11-05T11:06:36.518Z,51.1
2022-11-05T11:07:23.937Z,51.2
2022-11-05T11:08:11.228Z,51.0
2022-11-05T11:08:58.525Z,51.2
2022-11-05T11:09:45.931Z,51.1
2022-11-05T11:10:33.209Z,51.1
2022-11-05T11:11:20.492Z,51.2
2022-11-05T11:12:07.920Z,51.3
2022-11-05T11:12:55.192Z,51.5
2022-11-05T11:13:42.511Z,51.4
2022-11-05T11:14:29.883Z,51.4
2022-11-05T11:15:17.187Z,51.2
2022-11-05T11:16:04.459Z,51.1
2022-11-05T11:16:51.907Z,51.1
2022-11-05T11:17:39.307Z,51.0
2022-11-05T11:18:26.598Z,50.9
2022-11-05T11:19:14.009Z,50.9
2022-11-05T11:20:01.295Z,50.9
2022-11-05T11:20:48.600Z,51.0
2022-11-05T11:21:36.019Z,51.1
2022-11-05T11:22:23.282Z,51.0
2022-11-05T11:23:10.830Z,51.0
2022-11-05T11:23:58.350Z,51.1
2022-11-05T11:24:45.703Z,51.1
2022-11-05T11:25:32.988Z,51.5
2022-11-05T11:26:20.316Z,51.1
2022-11-05T11:27:07.596Z,51.2
2022-11-05T11:27:54.871Z,51.1
2022-11-05T11:28:42.193Z,51.0
2022-11-05T11:29:29.470Z,51.1
2022-11-05T11:30:16.845Z,51.2
2022-11-05T11:31:04.216Z,51.2
2022-11-05T11:31:51.491Z,51.2
2022-11-05T11:32:38.759Z,51.1
2022-11-05T11:33:26.053Z,51.0
2022-11-05T11:34:13.319Z,50.9
2022-11-05T11:35:00.851Z,50.9
2022-11-05T11:35:48.119Z,50.8
2022-11-05T11:36:35.402Z,50.8
2022-11-05T11:37:23.450Z,50.8
2022-11-05T11:38:10.979Z,50.8
2022-11-05T11:38:58.287Z,50.8
2022-11-05T11:39:45.563Z,50.8
2022-11-05T11:40:32.847Z,50.8
2022-11-05T11:41:20.270Z,50.9
2022-11-05T11:42:07.576Z,51.0
2022-11-05T11:42:54.925Z,51.1
2022-11-05T11:43:42.343Z,51.2
2022-11-05T11:44:29.882Z,51.3
2022-11-05T11:45:17.333Z,51.3
2022-11-05T11:46:07.709Z,51.6
2022-11-05T11:46:57.220Z,51.5
2022-11-05T11:47:44.700Z,51.5
2022-11-05T11:48:31.979Z,51.5
2022-11-05T11:49:19.259Z,51.6
2022-11-05T11:50:06.648Z,51.5
2022-11-05T11:50:53.926Z,51.6
2022-11-05T11:58:26.194Z,51.7
2022-11-05T12:05:58.466Z,51.6
2022-11-05T12:13:30.768Z,51.2
2022-11-05T12:21:03.063Z,50.9
2022-11-05T12:28:36.163Z,50.8
2022-11-05T12:36:08.623Z,50.7
2022-11-05T12:43:41.083Z,50.8
2022-11-05T12:51:13.402Z,50.7
2022-11-05T12:58:45.703Z,51.1
2022-11-05T13:06:17.989Z,50.7
2022-11-05T13:13:50.269Z,50.8
2022-11-05T13:21:22.548Z,50.8
2022-11-05T13:28:54.840Z,50.8
2022-11-05T13:36:27.143Z,50.9
2022-11-05T13:43:59.414Z,50.9
2022-11-05T13:51:37.689Z,51.1
2022-11-05T13:59:11.269Z,51.2
2022-11-05T14:06:43.561Z,51.3
2022-11-05T14:14:15.840Z,51.4
2022-11-05T14:21:48.122Z,51.5
2022-11-05T14:29:20.390Z,51.6
2022-11-05T14:36:52.681Z,51.7
2022-11-05T14:44:24.980Z,51.7
2022-11-05T14:51:57.285Z,51.9
2022-11-05T14:59:29.554Z,51.8
2022-11-05T15:07:01.827Z,51.9
2022-11-05T15:14:34.112Z,51.9
2022-11-05T15:22:06.390Z,51.9
2022-11-05T15:29:38.667Z,52.0
2022-11-05T15:37:10.956Z,52.1
2022-11-05T15:44:43.231Z,52.1
2022-11-05T15:52:15.516Z,52.1
2022-11-05T15:59:48.299Z,52.1
2022-11-05T16:07:20.571Z,52.2
2022-11-05T16:14:52.867Z,52.2
2022-11-05T16:22:25.149Z,52.2
2022-11-05T16:29:57.464Z,52.2
2022-11-05T16:37:29.781Z,52.3
2022-11-05T16:45:02.061Z,52.3
2022-11-05T16:52:34.349Z,52.4
2022-11-05T17:00:06.651Z,52.4
2022-11-05T17:07:41.484Z,52.6
2022-11-05T17:15:13.935Z,52.6
2022-11-05T17:22:46.203Z,53.2
2022-11-05T17:30:18.473Z,52.7
2022-11-05T17:37:50.754Z,52.8
2022-11-05T17:45:23.028Z,52.7
2022-11-05T17:52:55.306Z,52.8
2022-11-05T18:00:27.588Z,52.8
2022-11-05T18:07:59.872Z,53.3
2022-11-05T18:15:32.160Z,52.8
2022-11-05T18:23:04.440Z,52.8
2022-11-05T18:30:36.735Z,52.9
2022-11-05T18:38:09.015Z,52.8
2022-11-05T18:45:41.300Z,52.8
2022-11-05T18:53:13.587Z,52.8
2022-11-05T19:00:45.883Z,52.8
2022-11-05T19:08:18.185Z,52.8
2022-11-05T19:15:50.458Z,52.8
2022-11-05T19:23:22.742Z,52.8
2022-11-05T19:30:55.020Z,52.9
2022-11-05T19:38:27.313Z,52.8
2022-11-05T19:45:59.948Z,52.9
2022-11-05T19:53:32.232Z,52.8
2022-11-05T20:01:04.549Z,52.9
2022-11-05T20:08:47.859Z,52.9
2022-11-05T20:16:19.182Z,53.0
2022-11-05T20:23:51.466Z,52.9
2022-11-05T20:31:23.767Z,52.9
2022-11-05T20:38:56.067Z,52.9
2022-11-05T20:46:28.357Z,52.9
2022-11-05T20:54:00.659Z,52.9
2022-11-05T21:01:33.114Z,52.9
2022-11-05T21:09:05.506Z,53.0
2022-11-05T21:16:37.813Z,52.9
2022-11-05T21:24:10.114Z,52.8
2022-11-05T21:31:42.412Z,52.8
2022-11-05T21:39:14.707Z,52.7
2022-11-05T21:46:47.017Z,52.7
2022-11-05T21:54:19.314Z,52.5
2022-11-05T22:01:51.725Z,52.5
2022-11-05T22:09:24.071Z,52.5
2022-11-05T22:16:56.368Z,52.4
2022-11-05T22:24:28.650Z,52.2
2022-11-05T22:32:00.941Z,52.1
2022-11-05T22:39:33.226Z,52.0
2022-11-05T22:47:05.565Z,51.9
2022-11-05T22:54:39.449Z,51.8
2022-11-05T23:02:12.052Z,51.7
2022-11-05T23:09:44.438Z,51.8
2022-11-05T23:17:16.741Z,51.7
2022-11-05T23:24:49.032Z,51.6
2022-11-05T23:32:21.327Z,51.5
2022-11-05T23:39:53.623Z,51.5
2022-11-05T23:47:25.927Z,51.4
2022-11-05T23:54:58.219Z,51.3
